createdAt,value
2023-12-16T00:01:09.721Z,23.17
2023-12-16T00:03:37.537Z,25.23
2023-12-16T00:06:07.924Z,28.70
2023-12-16T00:08:36.586Z,26.70
2023-12-16T00:11:04.433Z,26.40
2023-12-16T00:13:32.752Z,23.47
2023-12-16T00:16:00.443Z,24.33
2023-12-16T00:18:29.892Z,27.93
2023-12-16T00:20:57.559Z,23.93
2023-12-16T00:23:25.205Z,22.50
2023-12-16T00:25:53.197Z,29.50
2023-12-16T00:28:21.039Z,29.17
2023-12-16T00:30:48.866Z,26.10
2023-12-16T00:33:16.663Z,26.27
2023-12-16T00:35:46.149Z,24.43
2023-12-16T00:38:13.987Z,25.73
2023-12-16T00:40:41.681Z,24.47
2023-12-16T00:43:09.553Z,29.27
2023-12-16T00:45:37.248Z,24.63
2023-12-16T00:48:05.028Z,28.23
2023-12-16T00:50:32.754Z,23.57
2023-12-16T00:53:01.725Z,26.40
2023-12-16T00:55:29.455Z,23.60
2023-12-16T00:57:57.390Z,26.77
2023-12-16T01:00:25.124Z,24.17
2023-12-16T01:02:52.757Z,29.37
2023-12-16T01:05:20.750Z,25.77
2023-12-16T01:07:48.432Z,24.03
2023-12-16T01:10:17.768Z,20.90
2023-12-16T01:12:45.507Z,27.10
2023-12-16T01:15:13.240Z,21.87
2023-12-16T01:17:41.839Z,21.47
2023-12-16T01:20:09.955Z,21.17
2023-12-16T01:22:37.703Z,22.77
2023-12-16T01:25:06.600Z,23.77
2023-12-16T01:27:35.914Z,21.67
2023-12-16T01:30:05.186Z,22.47
2023-12-16T01:32:33.242Z,26.70
2023-12-16T01:35:01.098Z,25.33
2023-12-16T01:37:29.301Z,28.87
2023-12-16T01:39:57.418Z,26.47
2023-12-16T01:42:25.289Z,20.27
2023-12-16T01:44:54.272Z,21.80
2023-12-16T01:47:22.037Z,25.80
2023-12-16T01:49:49.924Z,20.90
2023-12-16T01:52:18.668Z,24.53
2023-12-16T01:54:47.151Z,20.50
2023-12-16T01:57:14.913Z,24.87
2023-12-16T01:59:43.016Z,23.77
2023-12-16T02:02:14.594Z,21.43
2023-12-16T02:04:42.739Z,22.03
2023-12-16T02:07:10.835Z,24.97
2023-12-16T02:09:38.611Z,23.50
2023-12-16T02:12:07.001Z,22.60
2023-12-16T02:14:34.911Z,26.80
2023-12-16T02:17:02.817Z,24.67
2023-12-16T02:19:32.184Z,24.80
2023-12-16T02:22:00.684Z,23.93
2023-12-16T02:24:30.496Z,18.87
2023-12-16T02:26:58.327Z,23.73
2023-12-16T02:29:26.018Z,21.37
2023-12-16T02:31:53.699Z,21.90
2023-12-16T02:34:24.489Z,22.10
2023-12-16T02:36:52.234Z,21.47
2023-12-16T02:39:19.920Z,22.63
2023-12-16T02:41:48.893Z,21.47
2023-12-16T02:44:16.558Z,19.10
2023-12-16T02:46:44.267Z,23.33
2023-12-16T02:49:12.006Z,18.83
2023-12-16T02:51:39.698Z,18.20
2023-12-16T02:54:08.245Z,19.67
2023-12-16T02:56:35.950Z,19.20
2023-12-16T02:59:05.258Z,16.50
2023-12-16T03:01:33.023Z,18.30
2023-12-16T03:04:00.720Z,18.67
2023-12-16T03:06:28.745Z,15.97
2023-12-16T03:08:56.381Z,17.10
2023-12-16T03:11:24.039Z,17.07
2023-12-16T03:13:52.088Z,13.57
2023-12-16T03:16:21.534Z,14.77
2023-12-16T03:18:49.404Z,19.60
2023-12-16T03:21:17.272Z,18.57
2023-12-16T03:23:45.001Z,18.40
2023-12-16T03:26:12.669Z,20.47
2023-12-16T03:28:40.657Z,17.77
2023-12-16T03:31:08.456Z,21.33
2023-12-16T03:33:37.701Z,16.27
2023-12-16T03:36:06.009Z,16.93
2023-12-16T03:38:33.652Z,19.73
2023-12-16T03:41:01.359Z,20.23
2023-12-16T03:43:29.313Z,15.27
2023-12-16T03:45:56.999Z,17.10
2023-12-16T03:48:25.501Z,16.60
2023-12-16T03:50:54.842Z,14.63
2023-12-16T03:53:23.681Z,16.53
2023-12-16T03:55:51.370Z,17.33
2023-12-16T03:58:19.455Z,16.50
2023-12-16T04:00:47.365Z,19.90
2023-12-16T04:03:16.039Z,18.23
2023-12-16T04:05:44.467Z,16.53
2023-12-16T04:08:13.532Z,19.23
2023-12-16T04:10:41.441Z,20.07
2023-12-16T04:13:09.156Z,16.97
2023-12-16T04:15:36.823Z,15.17
2023-12-16T04:18:04.637Z,16.03
2023-12-16T04:20:32.383Z,13.63
2023-12-16T04:23:00.103Z,13.20
2023-12-16T04:25:29.551Z,17.20
2023-12-16T04:27:57.351Z,17.67
2023-12-16T04:30:25.058Z,14.77
2023-12-16T04:32:52.932Z,15.80
2023-12-16T04:35:20.733Z,16.10
2023-12-16T04:37:48.388Z,18.60
2023-12-16T04:40:16.377Z,14.37
2023-12-16T04:42:45.468Z,19.23
2023-12-16T04:45:13.561Z,16.83
2023-12-16T04:47:41.452Z,17.47
2023-12-16T04:50:10.160Z,16.27
2023-12-16T04:52:37.885Z,17.13
2023-12-16T04:55:06.538Z,17.60
2023-12-16T04:57:34.235Z,16.17
2023-12-16T05:00:03.683Z,17.47
2023-12-16T05:02:31.363Z,17.07
2023-12-16T05:04:59.030Z,14.83
2023-12-16T05:07:26.892Z,13.23
2023-12-16T05:09:54.816Z,13.77
2023-12-16T05:12:35.066Z,14.90
2023-12-16T05:15:06.332Z,16.53
2023-12-16T05:17:34.112Z,14.07
2023-12-16T05:20:02.083Z,13.03
2023-12-16T05:22:34.574Z,12.93
2023-12-16T05:25:03.294Z,15.70
2023-12-16T05:27:33.148Z,13.30
2023-12-16T05:30:06.982Z,10.97
2023-12-16T05:32:36.359Z,10.03
2023-12-16T05:35:06.059Z,10.17
2023-12-16T05:37:34.994Z,11.70
2023-12-16T05:40:04.984Z,14.47
2023-12-16T05:42:32.829Z,13.47
2023-12-16T05:45:00.517Z,8.90
2023-12-16T05:47:29.567Z,11.63
2023-12-16T05:49:57.397Z,14.30
2023-12-16T05:52:25.170Z,12.27
2023-12-16T05:54:53.248Z,10.93
2023-12-16T05:57:20.970Z,10.90
2023-12-16T05:59:48.636Z,10.40
2023-12-16T06:02:16.258Z,11.40
2023-12-16T06:04:46.245Z,11.40
2023-12-16T06:07:14.009Z,9.53
2023-12-16T06:09:41.801Z,11.30
2023-12-16T06:12:10.481Z,11.67
2023-12-16T06:14:37.208Z,9.73
2023-12-16T06:17:05.280Z,8.60
2023-12-16T06:19:33.302Z,13.17
2023-12-16T06:22:02.890Z,10.83
2023-12-16T06:24:30.666Z,10.83
2023-12-16T06:26:58.369Z,9.07
2023-12-16T06:29:26.159Z,9.77
2023-12-16T06:31:53.878Z,10.93
2023-12-16T06:34:22.328Z,9.40
2023-12-16T06:36:50.054Z,8.20
2023-12-16T06:39:19.091Z,12.03
2023-12-16T06:41:46.790Z,11.27
2023-12-16T06:44:14.483Z,11.37
2023-12-16T06:46:42.455Z,7.60
2023-12-16T06:49:10.227Z,10.73
2023-12-16T06:51:37.916Z,8.10
2023-12-16T06:54:06.038Z,6.07
2023-12-16T06:56:35.226Z,7.90
2023-12-16T06:59:04.238Z,7.47
2023-12-16T07:01:32.020Z,7.87
2023-12-16T07:04:02.429Z,7.60
2023-12-16T07:06:30.237Z,8.33
2023-12-16T07:08:57.913Z,14.40
2023-12-16T07:11:26.066Z,10.33
2023-12-16T07:13:55.070Z,8.13
2023-12-16T07:16:22.800Z,7.50
2023-12-16T07:18:50.548Z,13.00
2023-12-16T07:21:19.282Z,11.27
2023-12-16T07:23:47.164Z,10.30
2023-12-16T07:26:15.033Z,8.60
2023-12-16T07:28:42.734Z,7.17
2023-12-16T07:31:11.904Z,11.13
2023-12-16T07:33:39.819Z,12.90
2023-12-16T07:36:08.494Z,10.30
2023-12-16T07:38:36.239Z,11.70
2023-12-16T07:41:04.018Z,10.37
2023-12-16T07:43:31.996Z,16.27
2023-12-16T07:45:59.888Z,10.23
2023-12-16T07:48:29.218Z,14.47
2023-12-16T07:50:57.028Z,7.87
2023-12-16T07:53:24.931Z,10.70
2023-12-16T07:55:52.618Z,12.10
2023-12-16T07:58:20.405Z,10.43
2023-12-16T08:00:48.555Z,15.50
2023-12-16T08:03:16.351Z,12.53
2023-12-16T08:05:45.773Z,11.20
2023-12-16T08:08:12.538Z,10.87
2023-12-16T08:10:40.288Z,10.53
2023-12-16T08:13:08.160Z,11.93
2023-12-16T08:15:35.993Z,7.53
2023-12-16T08:18:04.902Z,11.40
2023-12-16T08:20:32.736Z,9.30
2023-12-16T08:23:03.548Z,13.67
2023-12-16T08:25:31.512Z,10.57
2023-12-16T08:27:59.356Z,12.30
2023-12-16T08:30:27.761Z,11.63
2023-12-16T08:32:55.467Z,12.17
2023-12-16T08:35:23.405Z,11.63
2023-12-16T08:37:51.235Z,12.33
2023-12-16T08:40:20.353Z,9.83
2023-12-16T08:42:48.327Z,10.47
2023-12-16T08:45:16.776Z,13.80
2023-12-16T08:47:46.233Z,11.97
2023-12-16T08:50:14.287Z,13.37
2023-12-16T08:52:43.323Z,8.73
2023-12-16T08:55:11.432Z,11.50
2023-12-16T08:57:41.200Z,10.70
2023-12-16T09:00:10.818Z,11.60
2023-12-16T09:02:39.356Z,12.03
2023-12-16T09:05:07.304Z,14.40
2023-12-16T09:07:35.134Z,17.77
2023-12-16T09:10:02.930Z,9.47
2023-12-16T09:12:30.663Z,9.53
2023-12-16T09:15:00.186Z,13.50
2023-12-16T09:17:27.935Z,10.97
2023-12-16T09:19:55.673Z,11.67
2023-12-16T09:22:23.839Z,10.20
2023-12-16T09:24:51.627Z,10.87
2023-12-16T09:27:19.449Z,8.17
2023-12-16T09:29:47.202Z,9.00
2023-12-16T09:32:16.433Z,7.00
2023-12-16T09:34:44.330Z,9.70
2023-12-16T09:37:12.085Z,8.00
2023-12-16T09:39:41.019Z,8.47
2023-12-16T09:42:09.066Z,9.33
2023-12-16T09:44:38.407Z,9.97
2023-12-16T09:47:09.416Z,9.00
2023-12-16T09:49:39.659Z,8.63
2023-12-16T09:52:07.706Z,10.87
2023-12-16T09:54:35.766Z,11.23
2023-12-16T09:57:04.435Z,14.13
2023-12-16T09:59:32.472Z,13.37
2023-12-16T10:02:04.439Z,11.33
2023-12-16T10:04:34.074Z,10.40
2023-12-16T10:07:03.264Z,10.90
2023-12-16T10:09:30.960Z,11.57
2023-12-16T10:12:00.597Z,8.30
2023-12-16T10:14:28.968Z,9.87
2023-12-16T10:17:03.773Z,9.77
2023-12-16T10:19:31.610Z,12.33
2023-12-16T10:21:59.333Z,11.20
2023-12-16T10:24:28.596Z,9.57
2023-12-16T10:26:56.501Z,7.77
2023-12-16T10:29:24.201Z,7.40
2023-12-16T10:31:52.104Z,6.70
2023-12-16T10:34:20.246Z,14.17
2023-12-16T10:36:47.994Z,13.20
2023-12-16T10:39:16.112Z,7.73
2023-12-16T10:41:45.351Z,8.53
2023-12-16T10:44:13.015Z,7.93
2023-12-16T10:46:44.569Z,8.50
2023-12-16T10:49:14.707Z,8.97
2023-12-16T10:51:45.615Z,8.77
2023-12-16T10:54:19.128Z,9.20
2023-12-16T10:56:59.938Z,10.90
2023-12-16T10:59:34.640Z,5.83
2023-12-16T11:02:08.898Z,10.27
2023-12-16T11:04:39.539Z,12.20
2023-12-16T11:07:09.593Z,9.43
2023-12-16T11:09:38.814Z,9.30
2023-12-16T11:12:09.263Z,10.50
2023-12-16T11:14:37.981Z,8.13
2023-12-16T11:17:11.714Z,9.73
2023-12-16T11:19:51.493Z,7.33
2023-12-16T11:22:23.130Z,10.20
2023-12-16T11:24:52.704Z,9.40
2023-12-16T11:27:22.563Z,10.57
2023-12-16T11:29:50.383Z,9.07
2023-12-16T11:32:18.960Z,8.73
2023-12-16T11:34:50.448Z,9.23
2023-12-16T11:37:43.662Z,10.63
2023-12-16T11:40:42.408Z,8.57
2023-12-16T11:43:12.596Z,13.63
2023-12-16T11:45:42.168Z,12.50
2023-12-16T11:48:11.073Z,12.87
2023-12-16T11:50:41.021Z,10.10
2023-12-16T11:53:10.292Z,15.97
2023-12-16T11:55:38.223Z,9.77
2023-12-16T11:58:06.676Z,10.33
2023-12-16T12:00:36.878Z,12.07
2023-12-16T12:03:07.188Z,9.70
2023-12-16T12:05:37.801Z,12.30
2023-12-16T12:08:07.197Z,9.63
2023-12-16T12:10:36.271Z,5.30
2023-12-16T12:13:04.237Z,9.20
2023-12-16T12:15:34.712Z,11.60
2023-12-16T12:18:03.938Z,5.97
2023-12-16T12:20:31.732Z,7.57
2023-12-16T12:23:00.413Z,8.60
2023-12-16T12:25:30.374Z,7.33
2023-12-16T12:27:58.082Z,11.47
2023-12-16T12:30:25.782Z,9.83
2023-12-16T12:32:53.677Z,8.70
2023-12-16T12:35:24.240Z,9.73
2023-12-16T12:37:52.699Z,7.60
2023-12-16T12:40:20.985Z,10.13
2023-12-16T12:42:50.713Z,10.43
2023-12-16T12:45:27.000Z,10.70
2023-12-16T12:47:55.225Z,11.83
2023-12-16T12:50:26.832Z,9.00
2023-12-16T12:53:19.159Z,10.70
2023-12-16T12:55:44.457Z,7.83
2023-12-16T12:58:19.352Z,9.27
2023-12-16T13:00:51.439Z,8.67
2023-12-16T13:03:19.361Z,8.73
2023-12-16T13:05:49.064Z,10.13
2023-12-16T13:08:17.101Z,8.80
2023-12-16T13:10:46.082Z,8.17
2023-12-16T13:13:14.187Z,8.47
2023-12-16T13:15:54.150Z,8.83
2023-12-16T13:18:26.125Z,8.77
2023-12-16T13:20:56.620Z,10.77
2023-12-16T13:23:24.495Z,9.37
2023-12-16T13:25:55.051Z,8.17
2023-12-16T13:28:23.517Z,11.67
2023-12-16T13:30:52.850Z,10.63
2023-12-16T13:33:21.389Z,11.27
2023-12-16T13:35:50.197Z,12.93
2023-12-16T13:38:19.457Z,8.20
2023-12-16T13:40:52.188Z,11.37
2023-12-16T13:43:21.595Z,14.13
2023-12-16T13:45:51.246Z,11.60
2023-12-16T13:48:19.994Z,8.03
2023-12-16T13:50:47.933Z,7.93
2023-12-16T13:53:15.580Z,11.13
2023-12-16T13:55:44.567Z,11.07
2023-12-16T13:58:12.307Z,9.67
2023-12-16T14:00:40.502Z,6.53
2023-12-16T14:03:08.337Z,7.80
2023-12-16T14:05:36.162Z,11.50
2023-12-16T14:08:04.798Z,9.70
2023-12-16T14:10:32.573Z,10.20
2023-12-16T14:13:01.601Z,7.80
2023-12-16T14:15:29.296Z,8.73
2023-12-16T14:17:57.182Z,7.27
2023-12-16T14:20:24.902Z,10.90
2023-12-16T14:22:53.747Z,10.73
2023-12-16T14:25:22.287Z,7.67
2023-12-16T14:27:50.788Z,9.17
2023-12-16T14:30:20.577Z,9.50
2023-12-16T14:32:48.469Z,5.27
2023-12-16T14:35:16.412Z,7.73
2023-12-16T14:37:44.126Z,5.17
2023-12-16T14:40:13.604Z,8.50
2023-12-16T14:42:41.575Z,6.53
2023-12-16T14:45:10.476Z,8.17
2023-12-16T14:47:39.702Z,7.30
2023-12-16T14:50:07.977Z,9.30
2023-12-16T14:52:35.808Z,6.20
2023-12-16T14:55:06.231Z,9.10
2023-12-16T14:57:36.600Z,10.03
2023-12-16T15:00:05.570Z,8.90
2023-12-16T15:02:33.567Z,6.23
2023-12-16T15:05:03.235Z,8.63
2023-12-16T15:07:31.159Z,8.17
2023-12-16T15:10:00.008Z,9.17
2023-12-16T15:12:29.098Z,8.13
2023-12-16T15:14:57.382Z,6.97
2023-12-16T15:17:25.546Z,6.33
2023-12-16T15:19:53.365Z,7.10
2023-12-16T15:22:22.522Z,7.47
2023-12-16T15:24:50.197Z,8.37
2023-12-16T15:27:19.094Z,8.33
2023-12-16T15:29:46.788Z,8.63
2023-12-16T15:32:16.182Z,10.37
2023-12-16T15:34:44.472Z,6.67
2023-12-16T15:37:17.634Z,13.13
2023-12-16T15:39:47.353Z,8.13
2023-12-16T15:42:16.825Z,12.93
2023-12-16T15:44:45.029Z,10.37
2023-12-16T15:47:12.764Z,7.57
2023-12-16T15:49:40.595Z,11.67
2023-12-16T15:52:08.449Z,12.93
2023-12-16T15:54:36.154Z,13.00
2023-12-16T15:57:09.527Z,13.47
2023-12-16T15:59:37.533Z,13.40
2023-12-16T16:02:05.905Z,9.97
2023-12-16T16:04:33.767Z,9.80
2023-12-16T16:07:01.526Z,9.73
2023-12-16T16:09:29.314Z,10.27
2023-12-16T16:11:57.065Z,7.53
2023-12-16T16:14:26.104Z,13.33
2023-12-16T16:16:53.821Z,11.10
2023-12-16T16:19:22.416Z,13.23
2023-12-16T16:21:50.273Z,11.37
2023-12-16T16:24:18.833Z,11.50
2023-12-16T16:26:46.574Z,8.63
2023-12-16T16:29:14.377Z,9.73
2023-12-16T16:31:43.902Z,9.97
2023-12-16T16:34:11.956Z,9.70
2023-12-16T16:36:39.739Z,10.70
2023-12-16T16:39:09.168Z,7.87
2023-12-16T16:41:37.001Z,10.60
2023-12-16T16:44:05.134Z,10.50
2023-12-16T16:46:32.965Z,14.33
2023-12-16T16:49:02.081Z,11.17
2023-12-16T16:51:31.487Z,12.60
2023-12-16T16:53:59.191Z,10.93
2023-12-16T16:56:27.148Z,12.33
2023-12-16T16:58:55.272Z,7.87
2023-12-16T17:01:23.213Z,11.37
2023-12-16T17:03:51.011Z,10.73
2023-12-16T17:06:20.318Z,9.60
2023-12-16T17:08:48.050Z,10.37
2023-12-16T17:11:15.945Z,9.20
2023-12-16T17:13:43.609Z,9.40
2023-12-16T17:16:14.141Z,12.10
2023-12-16T17:18:42.161Z,15.00
2023-12-16T17:21:10.159Z,9.37
2023-12-16T17:23:39.269Z,7.13
2023-12-16T17:26:07.612Z,8.47
2023-12-16T17:28:35.380Z,13.97
2023-12-16T17:31:05.394Z,13.97
2023-12-16T17:33:33.675Z,12.17
2023-12-16T17:36:05.236Z,10.10
2023-12-16T17:38:33.625Z,8.63
2023-12-16T17:41:02.843Z,9.67
2023-12-16T17:43:30.499Z,9.00
2023-12-16T17:45:58.174Z,8.20
2023-12-16T17:48:26.475Z,9.07
2023-12-16T17:50:54.234Z,8.73
2023-12-16T17:53:22.736Z,14.57
2023-12-16T17:55:50.658Z,12.10
2023-12-16T17:58:19.773Z,9.60
2023-12-16T18:00:49.413Z,10.20
2023-12-16T18:03:17.736Z,9.33
2023-12-16T18:05:45.469Z,10.27
2023-12-16T18:08:13.249Z,7.80
2023-12-16T18:10:40.941Z,8.93
2023-12-16T18:13:09.422Z,11.50
2023-12-16T18:15:42.696Z,6.50
2023-12-16T18:18:11.570Z,13.33
2023-12-16T18:20:59.140Z,11.93
2023-12-16T18:23:29.483Z,11.10
2023-12-16T18:26:03.094Z,8.13
2023-12-16T18:28:31.799Z,8.67
2023-12-16T18:31:02.013Z,8.93
2023-12-16T18:33:30.442Z,8.30
2023-12-16T18:35:58.250Z,8.40
2023-12-16T18:38:25.980Z,8.27
2023-12-16T18:40:54.636Z,9.17
2023-12-16T18:43:23.442Z,10.23
2023-12-16T18:45:51.410Z,9.90
2023-12-16T18:48:20.644Z,11.90
2023-12-16T18:50:49.710Z,9.63
2023-12-16T18:53:17.531Z,8.00
2023-12-16T18:55:45.881Z,6.70
2023-12-16T18:58:13.711Z,10.73
2023-12-16T19:00:41.437Z,10.47
2023-12-16T19:03:09.254Z,10.40
2023-12-16T19:05:38.386Z,7.57
2023-12-16T19:08:07.713Z,10.20
2023-12-16T19:10:35.603Z,5.27
2023-12-16T19:13:03.357Z,8.97
2023-12-16T19:15:31.800Z,4.80
2023-12-16T19:17:59.858Z,7.20
2023-12-16T19:20:27.748Z,6.47
2023-12-16T19:22:58.430Z,9.20
2023-12-16T19:25:26.355Z,11.33
2023-12-16T19:27:54.199Z,8.30
2023-12-16T19:30:22.056Z,7.00
2023-12-16T19:32:49.998Z,8.10
2023-12-16T19:35:18.064Z,7.83
2023-12-16T19:37:45.942Z,6.90
2023-12-16T19:40:16.824Z,12.30
2023-12-16T19:42:45.789Z,9.43
2023-12-16T19:45:13.843Z,10.37
2023-12-16T19:47:42.796Z,11.03
2023-12-16T19:50:11.294Z,8.57
2023-12-16T19:52:39.170Z,7.53
2023-12-16T19:55:07.560Z,8.80
2023-12-16T19:57:36.938Z,7.40
2023-12-16T20:00:05.680Z,8.03
2023-12-16T20:02:40.424Z,7.63
2023-12-16T20:05:09.599Z,8.27
2023-12-16T20:07:39.445Z,8.53
2023-12-16T20:10:08.232Z,7.33
2023-12-16T20:12:37.499Z,11.40
2023-12-16T20:15:05.694Z,7.43
2023-12-16T20:17:33.601Z,8.20
2023-12-16T20:20:01.785Z,11.20
2023-12-16T20:22:29.754Z,12.37
2023-12-16T20:24:58.137Z,11.27
2023-12-16T20:27:26.003Z,10.03
2023-12-16T20:29:59.176Z,11.73
2023-12-16T20:32:27.115Z,10.30
2023-12-16T20:34:55.132Z,9.07
2023-12-16T20:37:25.126Z,8.47
2023-12-16T20:40:10.324Z,7.40
2023-12-16T20:42:42.585Z,11.40
2023-12-16T20:45:12.819Z,10.10
2023-12-16T20:47:40.847Z,7.80
2023-12-16T20:50:09.835Z,7.77
2023-12-16T20:52:38.020Z,10.93
2023-12-16T20:55:06.435Z,10.50
2023-12-16T20:57:35.020Z,10.83
2023-12-16T21:00:02.818Z,6.20
2023-12-16T21:02:31.893Z,8.53
2023-12-16T21:04:59.627Z,10.83
2023-12-16T21:07:27.719Z,9.67
2023-12-16T21:09:55.528Z,9.73
2023-12-16T21:12:23.800Z,8.63
2023-12-16T21:14:51.835Z,10.47
2023-12-16T21:17:20.123Z,7.73
2023-12-16T21:19:49.259Z,9.53
2023-12-16T21:22:16.970Z,12.30
2023-12-16T21:24:49.529Z,9.27
2023-12-16T21:27:18.072Z,10.60
2023-12-16T21:29:46.592Z,9.40
2023-12-16T21:32:15.177Z,8.27
2023-12-16T21:34:43.241Z,10.00
2023-12-16T21:37:12.852Z,9.73
2023-12-16T21:39:41.007Z,10.20
2023-12-16T21:42:09.375Z,8.30
2023-12-16T21:44:37.261Z,10.90
2023-12-16T21:47:05.232Z,10.13
2023-12-16T21:49:33.113Z,8.07
2023-12-16T21:52:00.842Z,11.23
2023-12-16T21:54:30.388Z,8.10
2023-12-16T21:57:01.080Z,9.80
2023-12-16T21:59:28.798Z,11.50
2023-12-16T22:01:56.467Z,9.70
2023-12-16T22:04:24.085Z,9.83
2023-12-16T22:06:51.986Z,11.47
2023-12-16T22:09:19.895Z,10.53
2023-12-16T22:11:49.021Z,10.57
2023-12-16T22:14:16.732Z,10.13
2023-12-16T22:16:44.440Z,11.13
2023-12-16T22:19:12.703Z,11.93
2023-12-16T22:21:40.498Z,10.97
2023-12-16T22:24:08.936Z,11.63
2023-12-16T22:26:36.643Z,10.40
2023-12-16T22:29:05.629Z,13.57
2023-12-16T22:31:36.732Z,11.33
2023-12-16T22:34:04.508Z,11.03
2023-12-16T22:36:32.493Z,13.37
2023-12-16T22:39:00.605Z,12.23
2023-12-16T22:41:28.345Z,12.13
2023-12-16T22:43:56.015Z,11.67
2023-12-16T22:46:25.095Z,13.20
2023-12-16T22:48:52.982Z,12.80
2023-12-16T22:51:21.017Z,11.63
2023-12-16T22:53:48.823Z,11.37
2023-12-16T22:56:18.180Z,13.33
2023-12-16T22:58:45.829Z,12.37
2023-12-16T23:01:13.655Z,10.50
2023-12-16T23:03:42.896Z,10.97
2023-12-16T23:06:11.894Z,11.00
2023-12-16T23:08:40.202Z,12.47
2023-12-16T23:11:08.302Z,10.50
2023-12-16T23:13:36.153Z,9.57
2023-12-16T23:16:06.805Z,11.77
2023-12-16T23:18:34.652Z,9.47
2023-12-16T23:21:06.012Z,9.70
2023-12-16T23:23:34.754Z,11.47
2023-12-16T23:26:03.816Z,10.67
2023-12-16T23:28:31.687Z,8.50
2023-12-16T23:31:07.332Z,11.23
2023-12-16T23:33:39.977Z,9.63
2023-12-16T23:36:10.447Z,8.03
2023-12-16T23:38:41.676Z,9.03
2023-12-16T23:41:15.858Z,11.13
2023-12-16T23:43:43.686Z,11.03
2023-12-16T23:46:13.183Z,10.80
2023-12-16T23:48:41.278Z,10.33
2023-12-16T23:51:10.497Z,10.33
2023-12-16T23:53:38.477Z,9.53
2023-12-16T23:56:08.075Z,9.40
2023-12-16T23:58:36.482Z,9.70
